< < Back
Terminal Aerodrome Forecast


Current Version              Previous Versions:   1  2  3  4  5  6  7  8  9  

Terminal Aerodrome Forecast

680
FTUS42 KJAX 272300
TAFJAX
TAF
KJAX 272320Z 2800/2824 32010KT P6SM SKC
     FM280200 33005KT P6SM SKC
     FM281400 36010KT P6SM SKC=

Latest METAR

624
SAUS80 KWBC 282100 RRE
MTRJAX
METAR KJAX 282056Z 06009KT 10SM FEW030 11/02 A3030 RMK AO2 SLP262
T01060022 56013 $


USA.gov is the U.S. government's official web portal to all federal, state and local government web resources and services.